Time;durP1;ratioP1;P1;durP2;ratioP2;P2;SDS_P1;SDS_P2;PMS_P1;PMS_P2;Temp;Humidity;BMP_temperature;BMP_pressure;BME280_temperature;BME280_humidity;BME280_pressure;Samples;Min_cycle;Max_cycle;Signal;HPM_P1;HPM_P2
2021/12/23 00:00:48;;;;;;;;;65.67;52.33;;;;;2.13;62.75;101486.09;5052101;28;49954;-70
2021/12/23 00:03:14;;;;;;;;;61.00;52.00;;;;;1.94;62.77;101455.50;5052149;28;50859;-70
2021/12/23 00:05:39;;;;;;;;;56.25;46.75;;;;;2.44;63.34;101541.72;5052457;28;49695;-70
2021/12/23 00:08:04;;;;;;;;;62.25;50.00;;;;;2.04;63.06;101480.31;5052489;28;49893;-70
2021/12/23 00:10:30;;;;;;;;;62.33;47.00;;;;;2.27;62.83;101524.16;5052425;28;49703;-71
2021/12/23 00:12:55;;;;;;;;;61.50;49.75;;;;;2.27;63.72;101518.97;5051849;28;50736;-71
2021/12/23 00:25:46;;;;;;;;;68.33;55.00;;;;;1.92;63.09;101475.19;5043734;28;49930;-71
2021/12/23 00:28:11;;;;;;;;;60.25;47.25;;;;;2.15;63.98;101507.81;5050434;28;49676;-70
2021/12/23 00:30:37;;;;;;;;;66.67;50.00;;;;;2.26;64.00;101523.25;5052229;28;49945;-71
2021/12/23 00:33:02;;;;;;;;;67.67;46.33;;;;;2.25;63.68;101518.88;5051852;28;50770;-71
2021/12/23 00:35:27;;;;;;;;;63.75;49.75;;;;;2.23;63.40;101510.09;5051642;28;49883;-71
2021/12/23 00:38:01;;;;;;;;;64.50;51.75;;;;;1.95;64.21;101468.53;5051916;28;49806;-71
2021/12/23 00:40:27;;;;;;;;;65.00;48.00;;;;;1.88;63.83;101455.06;5051869;28;49832;-71
2021/12/23 00:42:52;;;;;;;;;60.25;46.75;;;;;1.89;63.75;101464.63;5051316;28;49817;-71
2021/12/23 00:45:18;;;;;;;;;60.75;46.25;;;;;1.87;64.25;101463.63;5051814;28;49960;-71
2021/12/23 00:47:43;;;;;;;;;61.50;49.00;;;;;1.83;64.69;101461.63;5051656;28;49577;-71
2021/12/23 00:50:09;;;;;;;;;60.00;50.00;;;;;2.09;64.00;101497.91;5051860;28;49935;-71
2021/12/23 00:52:37;;;;;;;;;65.75;53.25;;;;;2.03;64.66;101474.22;5051543;28;50217;-71
2021/12/23 00:55:04;;;;;;;;;59.00;49.00;;;;;2.10;64.76;101484.16;5051425;28;49693;-71
2021/12/23 00:57:31;;;;;;;;;57.25;45.50;;;;;2.10;64.83;101479.00;5051361;28;49844;-70
2021/12/23 00:59:58;;;;;;;;;55.75;44.00;;;;;1.99;64.91;101460.16;5051801;28;49936;-71
2021/12/23 01:02:29;;;;;;;;;59.50;45.50;;;;;2.08;65.07;101480.59;5051166;28;49895;-71
2021/12/23 01:04:54;;;;;;;;;58.25;47.25;;;;;1.94;64.60;101461.56;5051315;28;49679;-71
2021/12/23 01:07:20;;;;;;;;;66.50;51.00;;;;;2.09;64.73;101484.06;5050275;28;49688;-71
2021/12/23 01:09:45;;;;;;;;;54.50;47.50;;;;;1.62;64.83;101398.97;5051457;28;49589;-71
2021/12/23 01:12:14;;;;;;;;;62.75;47.25;;;;;2.04;65.05;101478.59;5050136;28;50354;-71
2021/12/23 01:14:55;;;;;;;;;49.50;44.75;;;;;2.04;65.07;101486.38;5051262;28;49741;-71
2021/12/23 01:19:52;;;;;;;;;65.75;47.00;;;;;2.08;65.09;101478.00;5051450;28;49935;-71
2021/12/23 01:22:19;;;;;;;;;56.50;48.00;;;;;2.06;65.10;101468.34;5051099;28;50591;-71
2021/12/23 01:24:44;;;;;;;;;59.25;42.25;;;;;1.50;65.16;101377.47;5051151;28;49868;-71
2021/12/23 01:27:10;;;;;;;;;65.25;52.75;;;;;2.09;65.50;101465.94;5049445;28;49886;-71
2021/12/23 01:29:35;;;;;;;;;71.75;50.00;;;;;2.11;65.25;101464.34;5050956;28;49879;-71
2021/12/23 01:32:04;;;;;;;;;56.33;48.00;;;;;2.02;65.88;101438.75;5050886;28;50030;-71
2021/12/23 01:34:30;;;;;;;;;60.75;49.75;;;;;2.09;64.96;101453.91;5050774;28;49617;-71
2021/12/23 01:36:55;;;;;;;;;59.75;46.25;;;;;2.06;65.14;101469.25;5051057;28;49669;-71
2021/12/23 01:39:21;;;;;;;;;60.75;46.25;;;;;2.04;66.10;101457.00;5049631;28;50316;-72
2021/12/23 01:41:46;;;;;;;;;59.00;48.50;;;;;2.08;66.19;101454.69;5050323;28;49828;-71
2021/12/23 01:44:11;;;;;;;;;64.50;50.75;;;;;1.88;66.12;101414.53;5050680;28;49644;-71
2021/12/23 01:46:37;;;;;;;;;57.00;46.50;;;;;2.00;65.26;101433.47;5049751;28;50000;-71
2021/12/23 01:49:02;;;;;;;;;64.50;51.00;;;;;2.11;66.01;101438.44;5050896;28;49965;-70
2021/12/23 01:51:28;;;;;;;;;66.75;52.25;;;;;2.19;65.34;101443.34;5050468;28;51357;-71
2021/12/23 01:53:53;;;;;;;;;64.33;52.67;;;;;1.92;65.84;101393.22;5050698;28;49819;-71
2021/12/23 01:56:19;;;;;;;;;56.00;47.00;;;;;2.23;65.70;101445.34;5049464;28;49774;-72
2021/12/23 01:58:44;;;;;;;;;68.75;53.75;;;;;1.95;65.35;101385.69;5050741;28;49861;-71
2021/12/23 02:01:11;;;;;;;;;65.00;50.50;;;;;2.24;66.10;101433.28;5050367;28;50643;-72
2021/12/23 02:03:39;;;;;;;;;61.25;46.75;;;;;2.26;65.17;101430.00;5050665;28;49853;-71
2021/12/23 02:06:04;;;;;;;;;55.25;45.75;;;;;2.27;66.09;101429.19;5050495;28;49685;-71
2021/12/23 02:08:34;;;;;;;;;55.50;47.00;;;;;2.33;65.40;101435.56;5050668;28;49729;-71
2021/12/23 02:11:00;;;;;;;;;57.75;48.75;;;;;2.33;65.99;101433.00;5050105;28;49865;-71
2021/12/23 02:13:26;;;;;;;;;63.00;48.25;;;;;2.07;65.46;101376.91;5050361;28;49927;-71
2021/12/23 02:15:52;;;;;;;;;58.00;46.75;;;;;2.37;65.85;101419.41;5050659;28;49866;-70
2021/12/23 02:18:20;;;;;;;;;60.25;48.75;;;;;2.40;65.71;101428.28;5050870;28;49899;-71
2021/12/23 02:20:45;;;;;;;;;57.75;45.75;;;;;1.94;64.86;101376.13;5050230;28;50555;-71
2021/12/23 02:23:11;;;;;;;;;62.75;50.00;;;;;2.40;65.82;101430.88;5050532;28;49940;-71
2021/12/23 02:25:36;;;;;;;;;59.25;47.25;;;;;2.13;64.96;101393.75;5050052;28;49830;-71
2021/12/23 02:28:07;;;;;;;;;62.50;50.25;;;;;2.31;65.08;101401.78;5049130;28;50140;-71
2021/12/23 02:30:37;;;;;;;;;65.50;49.25;;;;;2.36;66.20;101422.81;5050331;28;50803;-71
2021/12/23 02:33:04;;;;;;;;;61.50;48.50;;;;;2.05;65.21;101391.44;5050211;28;49535;-71
2021/12/23 02:35:29;;;;;;;;;61.50;49.50;;;;;2.32;65.18;101419.13;5050253;28;49225;-71
2021/12/23 02:37:55;;;;;;;;;55.75;47.00;;;;;2.28;66.03;101396.41;5050195;28;49765;-71
2021/12/23 02:40:38;;;;;;;;;62.33;50.33;;;;;2.40;65.33;101414.41;5049889;28;49743;-71
2021/12/23 02:43:26;;;;;;;;;61.67;49.67;;;;;2.39;65.88;101405.75;5041442;28;49850;-71
2021/12/23 02:45:55;;;;;;;;;65.00;53.33;;;;;2.28;65.74;101370.50;5050065;28;49802;-70
2021/12/23 02:48:31;;;;;;;;;61.25;47.25;;;;;2.20;65.25;101350.97;5048741;28;49945;-70
2021/12/23 02:50:58;;;;;;;;;63.33;49.67;;;;;2.51;64.88;101393.59;5049927;28;50716;-71
2021/12/23 02:53:24;;;;;;;;;64.33;50.00;;;;;2.51;65.14;101397.84;5049949;28;49873;-71
2021/12/23 02:55:54;;;;;;;;;66.00;54.33;;;;;2.43;65.99;101386.13;5049802;28;49793;-71
2021/12/23 02:58:19;;;;;;;;;67.50;53.00;;;;;2.48;65.78;101385.59;5049871;28;50064;-71
2021/12/23 03:00:48;;;;;;;;;66.00;53.00;;;;;2.32;65.03;101356.03;5049493;28;50484;-71
2021/12/23 03:03:14;;;;;;;;;69.33;53.33;;;;;2.42;65.64;101373.97;5049578;28;49799;-71
2021/12/23 03:05:39;;;;;;;;;67.50;53.00;;;;;2.58;65.14;101400.03;5049800;28;49892;-71
2021/12/23 03:08:05;;;;;;;;;61.50;48.50;;;;;2.19;64.89;101336.22;5050078;28;49782;-71
2021/12/23 03:10:30;;;;;;;;;66.00;50.25;;;;;2.59;65.45;101384.56;5049485;28;50412;-72
2021/12/23 03:12:56;;;;;;;;;54.67;47.00;;;;;2.20;65.37;101309.53;5049544;28;49848;-70
2021/12/23 03:15:22;;;;;;;;;59.50;45.50;;;;;2.23;65.27;101304.56;5049640;28;49814;-71
2021/12/23 03:17:48;;;;;;;;;59.50;47.75;;;;;2.62;64.47;101373.53;5049596;28;50096;-71
2021/12/23 03:20:13;;;;;;;;;59.75;49.00;;;;;2.35;65.07;101328.63;5049425;28;49775;-71
2021/12/23 03:22:39;;;;;;;;;70.00;49.75;;;;;2.62;64.60;101365.75;5049496;28;49928;-70
2021/12/23 03:25:05;;;;;;;;;62.50;49.50;;;;;2.65;65.18;101384.06;5049678;28;49738;-71
2021/12/23 03:27:30;;;;;;;;;61.75;49.00;;;;;2.60;65.04;101364.72;5047900;28;49705;-71
2021/12/23 03:29:56;;;;;;;;;68.50;50.75;;;;;1.95;64.90;101299.34;5049108;28;50340;-71
2021/12/23 03:32:23;;;;;;;;;56.00;49.25;;;;;2.34;64.91;101319.06;5049455;28;49884;-72
2021/12/23 03:34:48;;;;;;;;;65.75;49.25;;;;;2.64;64.75;101363.25;5049417;28;49796;-71
2021/12/23 03:37:14;;;;;;;;;68.00;52.25;;;;;2.26;64.49;101294.38;5052261;28;49943;-70
2021/12/23 03:39:39;;;;;;;;;72.00;52.50;;;;;2.63;64.20;101357.16;5051308;28;52025;-71
2021/12/23 03:42:05;;;;;;;;;50.50;43.00;;;;;2.49;65.05;101324.31;5052446;28;49679;-71
2021/12/23 03:44:30;;;;;;;;;60.50;49.00;;;;;2.61;64.60;101343.22;5052585;28;49729;-71
2021/12/23 03:46:56;;;;;;;;;55.00;46.25;;;;;2.65;65.23;101346.88;5053176;28;49838;-70
2021/12/23 03:49:21;;;;;;;;;65.33;50.33;;;;;2.41;65.09;101320.34;5052448;28;49637;-71
2021/12/23 03:51:47;;;;;;;;;62.50;48.50;;;;;2.18;65.29;101275.75;5052696;28;50061;-71
2021/12/23 03:54:12;;;;;;;;;63.67;49.67;;;;;2.42;65.32;101322.16;5052527;28;49759;-71
2021/12/23 03:56:38;;;;;;;;;65.33;50.67;;;;;2.18;65.08;101273.16;5052563;28;49875;-71
2021/12/23 03:59:03;;;;;;;;;64.50;49.75;;;;;2.07;65.03;101262.94;5052408;28;50312;-71
2021/12/23 04:01:30;;;;;;;;;54.00;46.75;;;;;2.43;65.10;101326.53;5051034;28;49747;-71
2021/12/23 04:03:56;;;;;;;;;61.25;46.50;;;;;2.43;64.98;101318.75;5052612;28;49562;-71
2021/12/23 04:06:22;;;;;;;;;64.67;49.67;;;;;2.34;65.05;101293.16;5051228;28;49946;-71
2021/12/23 04:08:48;;;;;;;;;63.50;49.75;;;;;2.51;65.39;101323.63;5052091;28;50575;-71
2021/12/23 04:11:14;;;;;;;;;49.50;44.25;;;;;2.26;65.41;101277.13;5052143;28;49786;-71
2021/12/23 04:13:39;;;;;;;;;61.00;46.00;;;;;2.56;65.75;101318.69;5052165;28;49681;-71
2021/12/23 04:16:05;;;;;;;;;56.75;47.50;;;;;2.15;65.37;101248.78;5052516;28;49837;-71
2021/12/23 04:18:30;;;;;;;;;56.25;46.00;;;;;2.53;64.85;101309.06;5052090;28;50483;-71
2021/12/23 04:20:56;;;;;;;;;64.00;49.33;;;;;2.54;65.73;101302.16;5052146;28;50026;-71
2021/12/23 04:23:27;;;;;;;;;62.33;49.33;;;;;1.88;66.04;101170.28;5052157;28;50274;-71
2021/12/23 04:25:54;;;;;;;;;60.50;49.00;;;;;2.46;65.31;101273.19;5052028;28;49771;-71
2021/12/23 04:28:20;;;;;;;;;61.00;48.00;;;;;2.65;65.61;101279.50;5051560;28;50826;-71
2021/12/23 04:30:46;;;;;;;;;73.25;49.75;;;;;2.57;65.49;101263.47;5051899;28;49792;-71
2021/12/23 04:33:12;;;;;;;;;67.67;53.67;;;;;2.73;65.57;101289.53;5052080;28;49903;-71
2021/12/23 04:35:38;;;;;;;;;59.67;48.67;;;;;2.39;65.57;101233.84;5052141;28;49854;-71
2021/12/23 04:38:03;;;;;;;;;56.00;45.33;;;;;2.49;65.40;101246.56;5051807;28;50605;-71
2021/12/23 04:40:34;;;;;;;;;65.00;49.50;;;;;2.50;65.75;101240.56;5051704;28;50072;-71
2021/12/23 04:43:01;;;;;;;;;62.25;45.50;;;;;2.66;65.54;101268.31;5050451;28;49857;-71
2021/12/23 04:45:26;;;;;;;;;54.50;44.75;;;;;2.84;65.43;101298.84;5051647;28;50105;-71
2021/12/23 04:47:51;;;;;;;;;65.25;48.75;;;;;2.85;65.29;101290.25;5050362;28;50721;-72
2021/12/23 04:50:18;;;;;;;;;54.75;45.50;;;;;2.50;64.98;101223.31;5051632;28;49864;-71
2021/12/23 04:52:44;;;;;;;;;64.00;49.50;;;;;2.55;64.63;101241.75;5050509;28;49756;-71
2021/12/23 04:55:12;;;;;;;;;62.25;48.25;;;;;2.80;65.15;101290.81;5050525;28;49814;-71
2021/12/23 04:57:37;;;;;;;;;58.00;48.25;;;;;2.84;64.87;101285.88;5051219;28;50471;-71
2021/12/23 05:00:11;;;;;;;;;52.50;44.25;;;;;2.36;65.54;101195.69;5050484;28;49657;-71
2021/12/23 05:02:37;;;;;;;;;51.75;44.00;;;;;2.87;65.29;101280.88;5051561;28;49730;-71
2021/12/23 05:05:03;;;;;;;;;64.25;49.00;;;;;2.55;64.57;101227.09;5051939;28;49854;-71
2021/12/23 05:07:28;;;;;;;;;62.50;49.75;;;;;2.84;64.63;101275.50;5038104;28;50679;-71
2021/12/23 05:09:53;;;;;;;;;67.25;50.50;;;;;2.73;64.98;101253.22;5051207;28;49881;-71
2021/12/23 05:12:19;;;;;;;;;63.75;51.00;;;;;2.88;65.58;101264.50;5051337;28;49652;-70
2021/12/23 05:14:44;;;;;;;;;62.00;49.00;;;;;2.66;64.84;101229.44;5051570;28;49720;-71
2021/12/23 05:17:10;;;;;;;;;63.25;46.25;;;;;2.84;64.58;101246.09;5051158;28;50697;-71
2021/12/23 05:19:35;;;;;;;;;64.75;53.50;;;;;2.84;64.72;101244.38;5051194;28;49796;-71
2021/12/23 05:22:01;;;;;;;;;57.50;48.25;;;;;2.93;65.34;101244.03;5049799;28;49757;-70
2021/12/23 05:24:28;;;;;;;;;62.00;50.25;;;;;2.70;65.55;101201.22;5051382;28;50136;-71
2021/12/23 05:26:54;;;;;;;;;57.75;46.75;;;;;2.81;64.92;101214.81;5050647;28;50898;-71
2021/12/23 05:29:19;;;;;;;;;60.50;45.25;;;;;3.00;64.82;101232.34;5050877;28;49910;-71
2021/12/23 05:31:44;;;;;;;;;56.75;46.50;;;;;2.75;65.30;101197.16;5051200;28;49661;-71
2021/12/23 05:34:10;;;;;;;;;61.67;48.33;;;;;3.01;65.03;101244.50;5051259;28;49948;-71
2021/12/23 05:36:35;;;;;;;;;67.00;52.33;;;;;2.75;65.11;101184.22;5050991;28;49849;-71
2021/12/23 05:39:01;;;;;;;;;59.25;50.25;;;;;2.91;65.12;101206.75;5049440;28;49773;-71
2021/12/23 05:41:27;;;;;;;;;60.75;49.00;;;;;3.01;64.53;101231.53;5050727;28;49780;-71
2021/12/23 05:43:56;;;;;;;;;63.50;48.75;;;;;2.73;65.29;101175.47;5050840;28;49673;-72
2021/12/23 05:46:22;;;;;;;;;51.50;45.25;;;;;3.10;65.07;101229.47;5050506;28;50256;-71
2021/12/23 05:48:47;;;;;;;;;53.50;48.00;;;;;2.81;64.73;101191.47;5050843;28;50376;-71
2021/12/23 05:51:13;;;;;;;;;66.50;51.00;;;;;3.08;65.25;101234.53;5049511;28;50065;-71
2021/12/23 05:53:38;;;;;;;;;61.50;49.75;;;;;2.72;65.08;101152.94;5050860;28;49934;-71
2021/12/23 05:56:04;;;;;;;;;65.00;51.50;;;;;3.13;64.78;101225.34;5050267;28;50454;-70
2021/12/23 05:58:30;;;;;;;;;57.75;45.25;;;;;2.23;65.28;101063.66;5050154;28;49752;-72
2021/12/23 06:00:55;;;;;;;;;70.00;54.75;;;;;3.04;65.09;101205.75;5050727;28;49933;-71
2021/12/23 06:03:20;;;;;;;;;67.25;48.75;;;;;3.13;65.09;101225.34;5050847;28;49753;-71
2021/12/23 06:05:46;;;;;;;;;48.75;42.25;;;;;3.14;65.10;101232.31;5050441;28;49942;-71
2021/12/23 06:08:11;;;;;;;;;61.25;48.75;;;;;2.93;64.79;101192.16;5050503;28;49846;-72
2021/12/23 06:10:37;;;;;;;;;61.25;51.25;;;;;3.03;65.32;101217.84;5050376;28;49998;-71
2021/12/23 06:13:02;;;;;;;;;63.00;48.75;;;;;3.19;64.97;101234.31;5050623;28;49791;-71
2021/12/23 06:15:28;;;;;;;;;58.50;46.00;;;;;2.88;64.95;101180.63;5050207;28;50034;-71
2021/12/23 06:17:53;;;;;;;;;64.00;48.50;;;;;3.11;64.31;101246.81;5050300;28;49818;-71
2021/12/23 06:20:19;;;;;;;;;60.00;48.00;;;;;3.16;65.12;101232.41;5050250;28;49569;-72
2021/12/23 06:22:44;;;;;;;;;62.00;49.50;;;;;3.17;64.93;101237.66;5050275;28;49977;-71
2021/12/23 06:25:12;;;;;;;;;55.00;43.75;;;;;2.88;64.97;101184.09;5049024;28;51891;-71
2021/12/23 06:27:38;;;;;;;;;64.25;49.75;;;;;3.15;64.92;101238.41;5049941;28;50116;-71
2021/12/23 06:30:19;;;;;;;;;58.00;46.25;;;;;3.15;65.66;101226.31;5050180;28;49822;-71
2021/12/23 06:32:48;;;;;;;;;61.75;46.25;;;;;2.90;64.96;101192.00;5050397;28;49614;-71
2021/12/23 06:35:15;;;;;;;;;53.75;47.75;;;;;3.15;64.80;101231.50;5049716;28;50514;-71
2021/12/23 06:37:41;;;;;;;;;48.75;42.75;;;;;3.25;65.21;101240.72;5048642;28;49794;-71
2021/12/23 06:40:08;;;;;;;;;58.00;46.25;;;;;3.12;65.25;101235.63;5050200;28;49838;-71
2021/12/23 06:42:33;;;;;;;;;58.75;48.75;;;;;2.75;65.20;101158.28;5050132;28;49966;-71
2021/12/23 06:44:58;;;;;;;;;62.50;49.25;;;;;3.29;65.82;101249.59;5049886;28;50460;-71
2021/12/23 06:47:24;;;;;;;;;55.25;48.75;;;;;3.13;65.08;101219.25;5049864;28;49740;-71
2021/12/23 06:49:49;;;;;;;;;52.25;44.50;;;;;3.29;65.82;101250.47;5049890;28;49929;-70
2021/12/23 06:52:15;;;;;;;;;66.75;52.75;;;;;3.17;65.05;101229.00;5050173;28;49940;-70
2021/12/23 06:54:46;;;;;;;;;61.75;48.75;;;;;3.26;65.20;101239.91;5049659;28;51286;-70
2021/12/23 06:57:11;;;;;;;;;59.75;45.50;;;;;3.30;65.96;101239.28;5049635;28;49741;-70
2021/12/23 06:59:37;;;;;;;;;55.00;44.25;;;;;2.97;65.86;101186.34;5050030;28;49740;-70
2021/12/23 07:02:02;;;;;;;;;61.50;49.50;;;;;3.34;65.22;101240.34;5050072;28;49752;-69
2021/12/23 07:04:31;;;;;;;;;59.00;49.50;;;;;3.15;65.99;101225.44;5049487;28;49685;-70
2021/12/23 07:07:12;;;;;;;;;62.50;48.00;;;;;3.15;65.47;101222.84;5049551;28;49872;-70
2021/12/23 07:09:40;;;;;;;;;69.50;52.75;;;;;3.23;65.64;101237.16;5049727;28;50032;-70
2021/12/23 07:12:08;;;;;;;;;57.50;48.75;;;;;3.39;65.88;101250.19;5052204;28;49805;-70
2021/12/23 07:14:34;;;;;;;;;59.50;49.00;;;;;3.41;65.44;101255.47;5053201;28;50872;-71
2021/12/23 07:17:00;;;;;;;;;58.50;43.75;;;;;3.19;65.52;101217.03;5053145;28;49946;-71
2021/12/23 07:19:25;;;;;;;;;55.75;45.00;;;;;3.28;65.33;101230.53;5053458;28;49848;-71
2021/12/23 07:21:51;;;;;;;;;61.00;48.00;;;;;3.43;65.83;101252.16;5053404;28;49685;-72
2021/12/23 07:24:16;;;;;;;;;65.75;48.75;;;;;3.44;65.60;101258.25;5052911;28;49750;-70
2021/12/23 07:26:42;;;;;;;;;60.25;47.50;;;;;3.44;65.28;101258.25;5051365;28;49950;-71
2021/12/23 07:29:07;;;;;;;;;63.50;51.00;;;;;3.20;65.29;101236.09;5052813;28;49658;-70
2021/12/23 07:31:33;;;;;;;;;67.25;48.75;;;;;3.40;66.14;101252.00;5052982;28;49613;-71
2021/12/23 07:34:01;;;;;;;;;63.25;44.75;;;;;3.40;65.50;101264.97;5052976;28;51012;-70
2021/12/23 07:36:29;;;;;;;;;61.00;49.50;;;;;3.49;65.51;101266.31;5052961;28;49767;-71
2021/12/23 07:38:55;;;;;;;;;61.00;48.25;;;;;3.38;65.92;101247.53;5053242;28;49792;-71
2021/12/23 07:41:21;;;;;;;;;60.00;47.75;;;;;3.54;65.64;101268.34;5052888;28;49677;-71
2021/12/23 07:46:21;;;;;;;;;63.75;50.75;;;;;3.61;65.54;101261.78;5052659;28;49743;-70
2021/12/23 07:48:46;;;;;;;;;64.00;50.75;;;;;3.44;65.66;101229.69;5052876;28;49760;-70
2021/12/23 07:51:12;;;;;;;;;63.00;46.50;;;;;3.71;65.50;101264.09;5053020;28;49839;-71
2021/12/23 07:53:38;;;;;;;;;58.50;47.75;;;;;3.20;66.10;101164.34;5052545;28;50491;-71
2021/12/23 07:56:03;;;;;;;;;57.75;48.00;;;;;3.21;65.32;101152.25;5052689;28;49850;-70
2021/12/23 07:58:29;;;;;;;;;63.50;47.75;;;;;3.89;65.77;101257.34;5052480;28;49657;-70
2021/12/23 08:00:54;;;;;;;;;66.00;50.50;;;;;3.73;65.60;101213.16;5052733;28;49959;-71
2021/12/23 08:03:19;;;;;;;;;74.75;53.75;;;;;3.82;64.95;101229.22;5052349;28;49909;-70
2021/12/23 08:05:45;;;;;;;;;64.25;51.00;;;;;3.89;65.18;101228.78;5052254;28;49879;-70
2021/12/23 08:08:10;;;;;;;;;64.00;47.75;;;;;3.80;65.70;101204.88;5052350;28;49819;-71
2021/12/23 08:10:36;;;;;;;;;59.00;45.75;;;;;3.92;64.89;101223.72;5052318;28;49762;-71
2021/12/23 08:13:01;;;;;;;;;67.75;51.25;;;;;4.14;65.25;101235.28;5050775;28;51483;-73
2021/12/23 08:15:27;;;;;;;;;63.75;53.00;;;;;4.05;64.63;101214.00;5052172;28;49740;-72
2021/12/23 08:17:53;;;;;;;;;61.75;51.50;;;;;4.22;64.50;101236.59;5050939;28;49851;-68
2021/12/23 08:20:21;;;;;;;;;65.50;46.25;;;;;4.19;65.22;101242.53;5052573;28;50030;-76
2021/12/23 08:22:47;;;;;;;;;63.75;49.50;;;;;4.32;65.32;101239.75;5051864;28;50584;-67
2021/12/23 08:25:13;;;;;;;;;63.50;51.25;;;;;4.15;64.71;101211.09;5052545;28;50006;-65
2021/12/23 08:27:40;;;;;;;;;68.50;50.75;;;;;4.43;64.71;101247.22;5051974;28;49882;-66
2021/12/23 08:30:08;;;;;;;;;64.50;47.75;;;;;4.31;64.87;101208.50;5052093;28;50184;-67
2021/12/23 08:32:33;;;;;;;;;58.50;45.50;;;;;4.56;65.00;101232.38;5051920;28;49921;-69
2021/12/23 08:34:59;;;;;;;;;65.75;53.75;;;;;4.63;65.37;101235.28;5051797;28;49809;-69
2021/12/23 08:37:24;;;;;;;;;60.00;47.00;;;;;4.57;64.93;101196.88;5045186;28;51193;-67
2021/12/23 08:39:51;;;;;;;;;58.50;47.75;;;;;4.63;64.55;101207.56;5044386;28;50105;-68
2021/12/23 08:42:17;;;;;;;;;47.25;41.75;;;;;4.28;65.07;101130.38;5051503;28;50026;-72
2021/12/23 08:44:42;;;;;;;;;58.00;49.00;;;;;4.91;65.34;101229.78;5050565;28;50071;-70
2021/12/23 08:47:09;;;;;;;;;56.00;46.25;;;;;4.88;64.48;101214.94;5051834;28;50129;-69
2021/12/23 08:49:34;;;;;;;;;57.75;46.00;;;;;4.70;64.69;101165.47;5052078;28;49538;-69
2021/12/23 08:52:00;;;;;;;;;52.50;43.50;;;;;5.01;64.26;101213.81;5051554;28;49709;-71
2021/12/23 08:54:25;;;;;;;;;55.00;44.25;;;;;5.17;64.50;101219.00;5047188;28;49658;-73
2021/12/23 08:56:53;;;;;;;;;57.75;46.00;;;;;5.12;64.87;101210.97;5051790;28;50026;-68
2021/12/23 08:59:19;;;;;;;;;51.75;45.50;;;;;4.80;65.19;101161.63;5051403;28;49922;-72
2021/12/23 09:01:45;;;;;;;;;55.25;44.50;;;;;5.28;64.11;101224.72;5050004;28;49828;-71
2021/12/23 09:04:11;;;;;;;;;48.00;43.00;;;;;5.32;64.11;101234.50;5046998;28;49916;-71
2021/12/23 09:06:36;;;;;;;;;53.75;45.50;;;;;5.33;64.17;101234.56;5044022;28;50062;-73
2021/12/23 09:09:03;;;;;;;;;54.00;46.75;;;;;5.37;64.50;101227.78;5051648;28;50069;-70
2021/12/23 09:11:29;;;;;;;;;36.25;28.50;;;;;5.13;63.90;101180.63;5047512;28;50287;-71
2021/12/23 09:13:54;;;;;;;;;52.00;42.75;;;;;4.97;63.82;101150.34;5063052;28;49896;-70
2021/12/23 09:16:20;;;;;;;;;59.50;45.75;;;;;5.40;64.30;101213.22;5046631;28;49723;-70
2021/12/23 09:18:45;;;;;;;;;58.75;47.25;;;;;5.16;64.20;101160.84;5051774;28;49891;-70
2021/12/23 09:21:12;;;;;;;;;53.00;46.25;;;;;5.18;63.85;101159.19;5050117;28;51924;-71
2021/12/23 09:23:39;;;;;;;;;59.75;47.75;;;;;5.42;64.17;101202.88;5051475;28;49924;-73
2021/12/23 09:26:09;;;;;;;;;56.75;40.75;;;;;4.58;64.39;101034.84;5052283;28;49629;-70
2021/12/23 09:28:59;;;;;;;;;63.00;46.50;;;;;5.66;64.54;101219.66;5049579;28;49989;-72
2021/12/23 09:34:09;;;;;;;;;56.50;42.25;;;;;5.17;64.00;101115.78;5042346;28;50096;-71
2021/12/23 09:36:36;;;;;;;;;57.50;42.25;;;;;5.84;63.93;101229.19;5049400;28;49805;-69
2021/12/23 09:39:03;;;;;;;;;53.75;46.25;;;;;4.90;64.50;101046.78;5048452;28;49739;-75
2021/12/23 09:41:29;;;;;;;;;51.25;46.00;;;;;4.70;64.69;101008.53;5052903;28;49741;-71
2021/12/23 09:43:59;;;;;;;;;49.50;43.75;;;;;5.03;64.38;101066.50;5050860;28;49959;-69
2021/12/23 09:46:25;;;;;;;;;47.75;42.00;;;;;4.36;64.40;100933.25;5051775;28;49693;-68
2021/12/23 09:48:52;;;;;;;;;55.50;45.75;;;;;5.67;64.37;101143.31;5050811;28;49731;-73
2021/12/23 09:51:21;;;;;;;;;57.50;42.25;;;;;5.20;64.99;101075.09;5048744;28;50864;-68
2021/12/23 09:53:58;;;;;;;;;51.50;42.25;;;;;4.64;64.40;100923.34;5050728;28;49749;-69
2021/12/23 09:56:29;;;;;;;;;51.00;41.50;;;;;6.10;64.59;101173.97;5050437;28;49882;-69
2021/12/23 09:58:57;;;;;;;;;47.75;39.75;;;;;6.35;64.68;101206.34;5050892;28;49712;-72
2021/12/23 10:01:23;;;;;;;;;46.50;41.25;;;;;6.36;64.86;101184.66;5050182;28;50824;-75
2021/12/23 10:03:49;;;;;;;;;50.25;43.00;;;;;6.13;65.33;101170.63;5049280;28;49728;-74
2021/12/23 10:06:14;;;;;;;;;49.00;42.25;;;;;6.41;65.44;101180.56;5044527;28;50340;-71
2021/12/23 10:08:42;;;;;;;;;52.00;42.50;;;;;6.06;65.25;101113.81;5046676;28;49672;-73
2021/12/23 10:31:03;;;;;;;;;50.00;41.50;;;;;6.86;65.04;101158.19;5055717;28;49815;-82
2021/12/23 10:33:43;;;;;;;;;56.50;45.75;;;;;5.55;64.82;100904.88;5051352;28;50561;-75
2021/12/23 10:38:40;;;;;;;;;45.00;37.75;;;;;7.16;64.79;101145.50;5050890;28;49794;-75
2021/12/23 10:41:26;;;;;;;;;42.00;38.50;;;;;7.30;65.37;101153.88;5048642;28;49732;-65
2021/12/23 10:43:56;;;;;;;;;43.50;37.50;;;;;7.37;65.23;101145.47;5050233;28;50771;-66
2021/12/23 10:46:28;;;;;;;;;46.50;40.50;;;;;7.20;65.05;101103.00;5051533;28;49891;-72
2021/12/23 10:52:06;;;;;;;;;49.00;40.25;;;;;7.41;64.97;101131.69;5053877;28;49614;-68
2021/12/23 11:00:23;;;;;;;;;43.75;39.50;;;;;7.57;65.01;101110.56;5052689;28;49664;-65
2021/12/23 11:03:25;;;;;;;;;43.25;37.50;;;;;7.75;65.99;101123.44;5056273;28;49574;-67
2021/12/23 11:08:47;;;;;;;;;40.00;36.00;;;;;7.78;65.60;101105.25;5048341;28;49709;-68
2021/12/23 11:36:34;;;;;;;;;39.75;32.00;;;;;7.45;66.87;100992.53;5064339;28;49475;-75
2021/12/23 11:39:25;;;;;;;;;36.50;33.00;;;;;6.75;66.75;100855.03;5058032;28;51475;-72
2021/12/23 11:42:10;;;;;;;;;34.50;31.75;;;;;8.33;67.34;101113.38;5059214;28;49755;-73
2021/12/23 11:44:36;;;;;;;;;38.00;34.50;;;;;7.62;67.06;100993.13;5058749;28;49302;-72
2021/12/23 11:47:09;;;;;;;;;37.75;33.25;;;;;8.16;67.40;101061.31;5065586;28;49563;-75
2021/12/23 11:49:38;;;;;;;;;45.75;37.75;;;;;8.44;68.15;101107.66;5068312;28;51566;-66
2021/12/23 11:52:03;;;;;;;;;41.25;37.25;;;;;8.49;67.81;101101.78;5070693;28;49569;-67
2021/12/23 11:54:32;;;;;;;;;39.50;34.50;;;;;8.27;68.00;101059.94;5070661;28;49499;-71
2021/12/23 11:57:04;;;;;;;;;41.50;37.25;;;;;8.07;67.53;101003.47;5069346;28;49658;-69
2021/12/23 11:59:31;;;;;;;;;39.50;32.50;;;;;8.23;67.29;101024.06;5068749;28;50658;-67
2021/12/23 12:01:58;;;;;;;;;34.50;33.50;;;;;8.58;67.97;101065.41;5067417;28;49517;-67
2021/12/23 12:04:31;;;;;;;;;35.75;34.75;;;;;8.73;68.11;101090.34;5071147;28;49270;-69
2021/12/23 12:06:57;;;;;;;;;39.00;33.00;;;;;8.74;68.36;101082.53;5062905;28;49372;-71
2021/12/23 12:09:31;;;;;;;;;41.25;35.25;;;;;8.79;67.43;101082.69;5058362;28;50498;-62
2021/12/23 12:11:59;;;;;;;;;54.00;42.75;;;;;8.69;67.96;101065.81;5060800;28;49488;-74
2021/12/23 12:14:40;;;;;;;;;44.50;37.75;;;;;8.71;67.64;101055.38;5068237;28;49532;-72
2021/12/23 12:17:23;;;;;;;;;34.50;31.75;;;;;8.92;67.56;101055.19;5062681;28;49733;-69
2021/12/23 12:20:10;;;;;;;;;31.50;30.50;;;;;8.98;68.19;101058.91;5057648;28;51773;-74
2021/12/23 12:22:49;;;;;;;;;45.00;37.00;;;;;8.98;67.18;101044.91;5058963;28;49649;-73
2021/12/23 12:25:27;;;;;;;;;34.75;30.75;;;;;9.08;68.00;101047.88;5066342;28;49628;-68
2021/12/23 12:27:55;;;;;;;;;41.50;35.00;;;;;9.16;67.39;101048.09;5065892;28;49576;-67
2021/12/23 12:30:35;;;;;;;;;39.00;36.00;;;;;9.00;67.46;101014.44;5068059;28;51687;-65
2021/12/23 12:33:11;;;;;;;;;49.50;39.50;;;;;8.84;67.69;100984.25;5065014;28;49574;-66
2021/12/23 12:35:37;;;;;;;;;49.25;39.00;;;;;9.10;67.92;101024.34;5069125;28;49464;-68